Time;durP1;ratioP1;P1;durP2;ratioP2;P2;SDS_P1;SDS_P2;PMS_P1;PMS_P2;Temp;Humidity;BMP_temperature;BMP_pressure;BME280_temperature;BME280_humidity;BME280_pressure;Samples;Min_cycle;Max_cycle;Signal;HPM_P1;HPM_P2
2023/02/13 00:00:59;;;;;;;28.05;18.85;;;;;;;;;;5043628;28;20025;-56
2023/02/13 00:03:25;;;;;;;28.48;20.45;;;;;;;;;;5020744;28;20028;-55
2023/02/13 00:05:51;;;;;;;27.13;19.33;;;;;;;;;;5047092;28;20108;-53
2023/02/13 00:08:17;;;;;;;29.67;20.00;;;;;;;;;;5028633;28;20133;-53
2023/02/13 00:10:43;;;;;;;30.40;20.92;;;;;;;;;;5047193;28;20040;-53
2023/02/13 00:13:09;;;;;;;27.55;20.20;;;;;;;;;;5028480;28;20449;-54
2023/02/13 00:15:35;;;;;;;29.27;18.58;;;;;;;;;;5009464;28;20051;-54
2023/02/13 00:18:02;;;;;;;28.55;20.65;;;;;;;;;;5009297;28;20033;-57
2023/02/13 00:20:28;;;;;;;28.10;19.92;;;;;;;;;;5011724;28;20458;-56
2023/02/13 00:22:54;;;;;;;31.08;19.80;;;;;;;;;;5013569;28;20025;-54
2023/02/13 00:25:20;;;;;;;31.48;21.27;;;;;;;;;;5071051;22;20421;-65
2023/02/13 00:27:46;;;;;;;31.40;21.90;;;;;;;;;;5033678;28;20064;-65
2023/02/13 00:30:12;;;;;;;27.83;20.25;;;;;;;;;;5034626;28;20389;-64
2023/02/13 00:32:38;;;;;;;32.85;20.95;;;;;;;;;;5053187;28;20068;-67
2023/02/13 00:35:04;;;;;;;31.20;21.30;;;;;;;;;;5052554;28;20021;-65
2023/02/13 00:37:30;;;;;;;29.10;20.27;;;;;;;;;;5035200;28;20405;-65
2023/02/13 00:39:56;;;;;;;31.70;21.63;;;;;;;;;;5035523;28;20017;-65
2023/02/13 00:42:25;;;;;;;32.92;21.48;;;;;;;;;;5035650;28;20516;-65
2023/02/13 00:44:51;;;;;;;32.42;21.95;;;;;;;;;;5052757;28;20029;-64
2023/02/13 00:47:17;;;;;;;31.92;21.98;;;;;;;;;;5035540;28;20116;-64
2023/02/13 00:49:43;;;;;;;30.90;21.00;;;;;;;;;;5053377;28;20139;-65
2023/02/13 00:52:09;;;;;;;30.70;20.80;;;;;;;;;;5035216;28;20043;-65
2023/02/13 00:54:35;;;;;;;30.10;20.75;;;;;;;;;;5052520;28;20061;-65
2023/02/13 00:57:02;;;;;;;31.98;21.92;;;;;;;;;;5034941;28;20061;-64
2023/02/13 00:59:28;;;;;;;32.20;21.05;;;;;;;;;;5053111;28;20070;-64
2023/02/13 01:01:54;;;;;;;31.45;21.05;;;;;;;;;;5035197;28;20481;-65
2023/02/13 01:04:20;;;;;;;33.03;21.00;;;;;;;;;;5034673;28;20108;-64
2023/02/13 01:06:46;;;;;;;30.58;21.33;;;;;;;;;;5034848;28;20069;-64
2023/02/13 01:09:12;;;;;;;32.38;21.98;;;;;;;;;;5035371;28;20017;-65
2023/02/13 01:11:38;;;;;;;30.73;21.20;;;;;;;;;;5034959;28;20115;-64
2023/02/13 01:14:04;;;;;;;31.35;21.27;;;;;;;;;;5034388;28;20021;-64
2023/02/13 01:16:30;;;;;;;31.40;23.15;;;;;;;;;;5052821;28;20024;-64
2023/02/13 01:18:56;;;;;;;33.80;22.45;;;;;;;;;;5034993;28;20025;-64
2023/02/13 01:21:23;;;;;;;29.52;22.17;;;;;;;;;;5034947;28;20021;-65
2023/02/13 01:23:50;;;;;;;29.70;21.13;;;;;;;;;;5052107;28;20397;-65
2023/02/13 01:26:17;;;;;;;31.25;21.77;;;;;;;;;;5052516;28;20032;-65
2023/02/13 01:28:44;;;;;;;30.98;21.05;;;;;;;;;;5034858;28;20112;-67
2023/02/13 01:31:10;;;;;;;29.50;21.70;;;;;;;;;;5034137;28;20029;-67
2023/02/13 01:33:36;;;;;;;30.15;21.02;;;;;;;;;;5034394;28;20029;-65
2023/02/13 01:36:06;;;;;;;28.50;20.45;;;;;;;;;;5035420;28;20029;-65
2023/02/13 01:38:32;;;;;;;31.63;22.92;;;;;;;;;;5035494;28;20025;-64
2023/02/13 01:40:58;;;;;;;31.63;21.55;;;;;;;;;;5034620;28;20025;-65
2023/02/13 01:43:24;;;;;;;30.80;22.23;;;;;;;;;;5033695;28;20027;-65
2023/02/13 01:45:54;;;;;;;36.20;23.23;;;;;;;;;;5034363;28;20017;-65
2023/02/13 01:48:24;;;;;;;31.00;20.67;;;;;;;;;;5034399;28;20523;-65
2023/02/13 01:50:53;;;;;;;32.60;21.90;;;;;;;;;;5034387;28;20029;-68
2023/02/13 01:53:22;;;;;;;31.58;21.83;;;;;;;;;;5033671;28;20054;-64
2023/02/13 01:55:52;;;;;;;30.85;20.17;;;;;;;;;;5034198;28;20029;-64
2023/02/13 01:58:20;;;;;;;28.80;20.00;;;;;;;;;;5034221;28;20025;-63
2023/02/13 02:00:48;;;;;;;30.90;22.25;;;;;;;;;;5034098;28;20057;-63
2023/02/13 02:03:35;;;;;;;31.40;21.35;;;;;;;;;;5033256;28;20424;-63
2023/02/13 02:06:02;;;;;;;29.20;21.25;;;;;;;;;;5034093;28;20025;-64
2023/02/13 02:08:29;;;;;;;29.02;20.63;;;;;;;;;;5034088;28;20033;-64
2023/02/13 02:10:57;;;;;;;29.20;20.08;;;;;;;;;;5051721;28;20029;-66
2023/02/13 02:13:23;;;;;;;29.95;20.15;;;;;;;;;;5051152;28;20032;-63
2023/02/13 02:15:49;;;;;;;29.90;19.90;;;;;;;;;;5033362;28;20028;-64
2023/02/13 02:18:16;;;;;;;30.05;20.23;;;;;;;;;;5051792;28;20079;-62
2023/02/13 02:21:01;;;;;;;27.65;18.95;;;;;;;;;;5051687;28;20039;-65
2023/02/13 02:23:27;;;;;;;29.92;20.70;;;;;;;;;;5032896;28;20047;-63
2023/02/13 02:26:12;;;;;;;28.52;19.65;;;;;;;;;;5051420;28;20032;-63
2023/02/13 02:28:41;;;;;;;28.73;19.17;;;;;;;;;;5051614;28;20029;-65
2023/02/13 02:31:19;;;;;;;29.27;19.67;;;;;;;;;;5033675;28;20032;-63
2023/02/13 02:33:48;;;;;;;26.75;18.85;;;;;;;;;;5033071;28;20032;-63
2023/02/13 02:36:20;;;;;;;26.83;18.88;;;;;;;;;;5033389;28;20122;-63
2023/02/13 02:38:55;;;;;;;27.15;19.58;;;;;;;;;;5033410;28;20100;-64
2023/02/13 02:41:42;;;;;;;254.45;159.57;;;;;;;;;;5033444;28;20118;-64
2023/02/13 02:44:08;;;;;;;98.03;64.55;;;;;;;;;;5049472;28;20527;-63
2023/02/13 02:46:37;;;;;;;87.47;56.88;;;;;;;;;;5033046;28;20028;-64
2023/02/13 02:51:53;;;;;;;38.80;27.58;;;;;;;;;;5051131;28;19911;-63
2023/02/13 03:06:09;;;;;;;24.00;17.73;;;;;;;;;;5051402;28;20036;-63
2023/02/13 03:14:12;;;;;;;25.90;17.33;;;;;;;;;;4978483;28;20046;-65
2023/02/13 03:22:34;;;;;;;22.95;16.38;;;;;;;;;;5043017;28;20036;-65
2023/02/13 03:25:32;;;;;;;25.50;17.60;;;;;;;;;;5012001;28;20424;-65
2023/02/13 03:30:52;;;;;;;24.15;16.90;;;;;;;;;;5030718;28;20044;-66
2023/02/13 03:33:26;;;;;;;24.05;16.85;;;;;;;;;;5011961;28;20029;-65
2023/02/13 03:38:51;;;;;;;23.77;16.42;;;;;;;;;;5030412;28;20059;-65
2023/02/13 03:41:36;;;;;;;25.55;16.63;;;;;;;;;;5030404;28;20029;-65
2023/02/13 03:44:28;;;;;;;23.75;16.25;;;;;;;;;;5011960;28;20409;-64
2023/02/13 03:46:57;;;;;;;24.00;16.63;;;;;;;;;;5025669;28;20038;-65
2023/02/13 03:52:18;;;;;;;23.50;16.35;;;;;;;;;;5030578;28;20064;-64
2023/02/13 04:00:20;;;;;;;22.15;15.45;;;;;;;;;;5030598;28;20068;-64
2023/02/13 04:02:52;;;;;;;23.83;15.57;;;;;;;;;;5012359;28;20078;-64
2023/02/13 04:05:23;;;;;;;23.90;16.60;;;;;;;;;;5029222;28;20021;-64
2023/02/13 04:07:50;;;;;;;24.88;16.00;;;;;;;;;;5012322;28;20026;-64
2023/02/13 04:10:17;;;;;;;22.92;16.38;;;;;;;;;;5012438;28;20036;-65
2023/02/13 04:12:50;;;;;;;23.58;16.98;;;;;;;;;;5029859;28;20021;-63
2023/02/13 04:15:19;;;;;;;23.23;15.95;;;;;;;;;;5011432;28;20072;-64
2023/02/13 04:17:48;;;;;;;24.77;15.82;;;;;;;;;;5012010;28;20068;-65
2023/02/13 04:20:14;;;;;;;24.75;16.85;;;;;;;;;;5012062;28;20194;-65
2023/02/13 04:22:45;;;;;;;23.17;15.95;;;;;;;;;;5012014;28;20097;-64
2023/02/13 04:25:16;;;;;;;23.60;16.60;;;;;;;;;;5028702;28;20087;-64
2023/02/13 04:27:42;;;;;;;23.50;16.38;;;;;;;;;;5011877;28;20117;-62
2023/02/13 04:30:08;;;;;;;24.65;17.25;;;;;;;;;;5011872;28;20066;-65
2023/02/13 04:32:34;;;;;;;22.45;16.55;;;;;;;;;;5029431;28;20021;-65
2023/02/13 04:35:00;;;;;;;22.60;16.42;;;;;;;;;;5010698;28;20033;-64
2023/02/13 04:37:26;;;;;;;25.60;17.42;;;;;;;;;;5011861;28;20084;-65
2023/02/13 04:39:52;;;;;;;25.35;17.42;;;;;;;;;;5011699;28;20052;-65
2023/02/13 04:42:18;;;;;;;25.80;17.00;;;;;;;;;;5011563;28;20025;-64
2023/02/13 04:44:44;;;;;;;23.52;17.25;;;;;;;;;;5028549;28;20096;-65
2023/02/13 04:47:10;;;;;;;25.85;16.92;;;;;;;;;;5029360;28;20091;-64
2023/02/13 04:49:37;;;;;;;24.20;16.25;;;;;;;;;;5011557;28;20112;-65
2023/02/13 04:52:03;;;;;;;22.77;16.40;;;;;;;;;;5011598;28;20062;-68
2023/02/13 04:54:29;;;;;;;22.58;16.50;;;;;;;;;;5028822;28;20048;-64
2023/02/13 04:56:55;;;;;;;23.75;17.33;;;;;;;;;;5011283;28;20462;-65
2023/02/13 04:59:21;;;;;;;24.83;17.45;;;;;;;;;;5029211;28;20120;-64
2023/02/13 05:01:47;;;;;;;24.35;17.25;;;;;;;;;;5029328;28;20025;-65
2023/02/13 05:04:15;;;;;;;23.75;17.17;;;;;;;;;;5028276;28;20022;-65
2023/02/13 05:06:41;;;;;;;25.15;17.92;;;;;;;;;;5030535;28;20057;-64
2023/02/13 05:09:07;;;;;;;26.33;18.27;;;;;;;;;;5032868;28;20034;-65
2023/02/13 05:11:33;;;;;;;25.50;17.15;;;;;;;;;;5014956;28;20021;-65
2023/02/13 05:13:59;;;;;;;23.45;17.65;;;;;;;;;;5014408;28;20116;-64
2023/02/13 05:16:25;;;;;;;23.98;16.98;;;;;;;;;;5014803;28;20084;-65
2023/02/13 05:18:53;;;;;;;25.05;18.10;;;;;;;;;;5032470;28;20086;-65
2023/02/13 05:24:04;;;;;;;24.48;18.17;;;;;;;;;;5032410;28;20041;-64
2023/02/13 05:26:31;;;;;;;24.15;17.55;;;;;;;;;;5032406;28;20089;-65
2023/02/13 05:31:41;;;;;;;23.83;18.08;;;;;;;;;;5032931;28;20199;-64
2023/02/13 05:34:07;;;;;;;24.02;18.40;;;;;;;;;;5013951;28;20083;-65
2023/02/13 05:36:33;;;;;;;23.27;17.95;;;;;;;;;;5014592;28;20033;-65
2023/02/13 05:38:59;;;;;;;26.00;18.52;;;;;;;;;;5032110;28;20022;-66
2023/02/13 05:41:25;;;;;;;25.63;19.08;;;;;;;;;;5014272;28;20060;-64
2023/02/13 05:43:51;;;;;;;25.92;17.90;;;;;;;;;;5013697;28;20029;-63
2023/02/13 05:46:17;;;;;;;25.70;17.50;;;;;;;;;;5014771;28;20017;-65
2023/02/13 05:48:43;;;;;;;27.08;19.67;;;;;;;;;;5014484;28;20029;-62
2023/02/13 05:51:09;;;;;;;26.58;17.90;;;;;;;;;;5014472;28;20079;-63
2023/02/13 05:53:36;;;;;;;25.27;17.42;;;;;;;;;;5013548;28;20025;-64
2023/02/13 05:56:02;;;;;;;23.67;17.77;;;;;;;;;;5013961;28;20113;-64
2023/02/13 05:58:29;;;;;;;24.67;18.25;;;;;;;;;;5032162;28;20021;-66
2023/02/13 06:00:58;;;;;;;24.02;18.00;;;;;;;;;;5031653;28;20028;-65
2023/02/13 06:03:24;;;;;;;24.52;17.95;;;;;;;;;;5013125;28;20072;-64
2023/02/13 06:05:51;;;;;;;24.20;18.38;;;;;;;;;;5013333;28;20030;-64
2023/02/13 06:08:17;;;;;;;24.77;19.02;;;;;;;;;;5031872;28;20496;-64
2023/02/13 06:10:43;;;;;;;25.92;18.38;;;;;;;;;;5014310;28;20392;-67
2023/02/13 06:13:09;;;;;;;26.60;17.65;;;;;;;;;;5013273;28;20072;-64
2023/02/13 06:15:35;;;;;;;24.98;18.48;;;;;;;;;;5031801;28;20363;-64
2023/02/13 06:18:01;;;;;;;28.38;17.90;;;;;;;;;;5015927;28;20060;-64
2023/02/13 06:20:27;;;;;;;25.20;18.80;;;;;;;;;;5064269;28;20028;-64
2023/02/13 06:22:53;;;;;;;26.63;18.25;;;;;;;;;;5060121;28;20131;-64
2023/02/13 06:27:48;;;;;;;25.08;19.10;;;;;;;;;;5069777;28;19928;-61
2023/02/13 06:30:14;;;;;;;25.33;18.80;;;;;;;;;;5054077;28;20098;-60
2023/02/13 06:32:40;;;;;;;24.98;18.50;;;;;;;;;;5072328;28;20036;-60
2023/02/13 06:35:06;;;;;;;24.45;18.02;;;;;;;;;;5071463;28;20009;-61
2023/02/13 06:37:33;;;;;;;26.15;20.00;;;;;;;;;;5034400;28;20119;-60
2023/02/13 06:39:59;;;;;;;26.23;19.17;;;;;;;;;;5052076;28;20473;-59
2023/02/13 06:42:25;;;;;;;26.80;18.75;;;;;;;;;;5034099;28;20021;-59
2023/02/13 06:44:51;;;;;;;24.77;18.52;;;;;;;;;;5051267;28;20029;-60
2023/02/13 06:47:17;;;;;;;24.95;19.10;;;;;;;;;;5034205;28;20033;-60
2023/02/13 06:49:43;;;;;;;26.63;18.67;;;;;;;;;;5051972;28;20027;-59
2023/02/13 06:52:09;;;;;;;27.15;19.52;;;;;;;;;;5033565;28;20025;-60
2023/02/13 06:54:35;;;;;;;27.23;18.95;;;;;;;;;;5033137;28;20115;-59
2023/02/13 06:57:01;;;;;;;27.42;17.95;;;;;;;;;;5033717;28;20478;-61
2023/02/13 06:59:27;;;;;;;23.65;17.35;;;;;;;;;;5033892;28;20115;-57
2023/02/13 07:01:53;;;;;;;27.35;20.08;;;;;;;;;;5033644;28;20067;-61
2023/02/13 07:04:19;;;;;;;23.63;18.05;;;;;;;;;;5033146;28;20021;-60
2023/02/13 07:06:45;;;;;;;24.65;17.63;;;;;;;;;;5033712;28;20040;-60
2023/02/13 07:09:12;;;;;;;27.05;17.23;;;;;;;;;;5033936;28;20056;-59
2023/02/13 07:11:38;;;;;;;23.52;17.85;;;;;;;;;;5033785;28;20025;-62
2023/02/13 07:14:08;;;;;;;24.00;17.20;;;;;;;;;;5032782;28;20028;-59
2023/02/13 07:16:34;;;;;;;23.52;18.05;;;;;;;;;;5051431;28;20021;-59
2023/02/13 07:19:00;;;;;;;23.27;17.65;;;;;;;;;;5051120;28;20025;-59
2023/02/13 07:21:26;;;;;;;27.13;18.25;;;;;;;;;;5033353;28;20025;-59
2023/02/13 07:23:53;;;;;;;24.88;18.73;;;;;;;;;;5032533;28;20094;-55
2023/02/13 07:26:19;;;;;;;25.55;18.70;;;;;;;;;;5033527;28;20036;-60
2023/02/13 07:28:45;;;;;;;25.00;18.25;;;;;;;;;;5032665;28;20025;-59
2023/02/13 07:31:11;;;;;;;24.77;19.08;;;;;;;;;;5051293;28;20055;-61
2023/02/13 07:33:37;;;;;;;26.05;19.00;;;;;;;;;;5050267;28;20111;-61
2023/02/13 07:36:03;;;;;;;24.83;17.45;;;;;;;;;;5033019;28;20119;-55
2023/02/13 07:38:30;;;;;;;27.00;19.10;;;;;;;;;;5033120;28;20025;-59
2023/02/13 07:40:59;;;;;;;25.58;18.60;;;;;;;;;;5033253;28;20470;-59
2023/02/13 07:43:25;;;;;;;24.75;18.25;;;;;;;;;;5032514;28;20044;-59
2023/02/13 07:45:54;;;;;;;25.23;18.25;;;;;;;;;;5050674;28;20104;-59
2023/02/13 07:48:21;;;;;;;25.15;17.83;;;;;;;;;;5050923;28;20124;-61
2023/02/13 07:50:47;;;;;;;22.90;16.98;;;;;;;;;;5033171;28;20489;-61
2023/02/13 07:53:13;;;;;;;23.10;16.67;;;;;;;;;;5032075;28;20512;-60
2023/02/13 07:55:39;;;;;;;25.23;18.02;;;;;;;;;;5050594;28;20044;-58
2023/02/13 07:58:05;;;;;;;22.83;17.50;;;;;;;;;;5050670;28;20392;-60
2023/02/13 08:00:31;;;;;;;25.20;17.88;;;;;;;;;;5050995;28;20390;-60
2023/02/13 08:02:59;;;;;;;24.27;17.15;;;;;;;;;;5050667;28;20025;-60
2023/02/13 08:05:25;;;;;;;22.43;16.47;;;;;;;;;;5032425;28;20021;-59
2023/02/13 08:07:52;;;;;;;24.05;16.55;;;;;;;;;;5050774;28;20018;-59
2023/02/13 08:13:03;;;;;;;23.05;17.08;;;;;;;;;;5050294;28;20507;-59
2023/02/13 08:15:30;;;;;;;22.50;15.90;;;;;;;;;;5032902;28;20025;-60
2023/02/13 08:17:56;;;;;;;23.17;16.83;;;;;;;;;;5032818;28;20029;-56
2023/02/13 08:20:22;;;;;;;21.83;16.45;;;;;;;;;;5032674;28;20462;-60
2023/02/13 08:22:49;;;;;;;22.58;16.33;;;;;;;;;;5050789;28;20494;-61
2023/02/13 08:25:15;;;;;;;22.58;16.60;;;;;;;;;;5049998;28;20033;-55
2023/02/13 08:27:41;;;;;;;24.30;17.05;;;;;;;;;;5032824;28;20047;-59
2023/02/13 08:30:08;;;;;;;24.25;17.05;;;;;;;;;;5032785;28;20638;-59
2023/02/13 08:32:34;;;;;;;23.77;17.17;;;;;;;;;;5050479;28;20032;-56
2023/02/13 08:35:00;;;;;;;23.27;16.10;;;;;;;;;;5050031;28;20032;-58
2023/02/13 08:37:26;;;;;;;23.25;16.02;;;;;;;;;;5032690;28;20029;-60
2023/02/13 08:39:52;;;;;;;22.30;15.57;;;;;;;;;;5050565;28;20445;-63
2023/02/13 08:42:18;;;;;;;23.50;16.85;;;;;;;;;;5034964;28;20465;-60
2023/02/13 08:44:44;;;;;;;23.73;17.23;;;;;;;;;;5053864;28;20444;-63
2023/02/13 08:47:11;;;;;;;24.65;17.65;;;;;;;;;;5054265;28;20524;-61
2023/02/13 08:49:37;;;;;;;24.42;17.70;;;;;;;;;;5036437;28;20033;-63
2023/02/13 08:52:03;;;;;;;26.65;18.88;;;;;;;;;;5036398;28;20040;-62
2023/02/13 08:54:29;;;;;;;23.67;16.38;;;;;;;;;;5035936;28;20573;-59
2023/02/13 08:56:56;;;;;;;23.55;16.45;;;;;;;;;;5036329;28;20044;-61
2023/02/13 08:59:22;;;;;;;25.63;18.45;;;;;;;;;;5036363;28;20025;-61
2023/02/13 09:01:48;;;;;;;24.17;17.77;;;;;;;;;;5035948;28;20040;-63
2023/02/13 09:04:14;;;;;;;25.95;18.05;;;;;;;;;;5035669;28;20401;-62
2023/02/13 09:06:41;;;;;;;29.10;19.20;;;;;;;;;;5036282;28;20017;-61
2023/02/13 09:09:07;;;;;;;24.33;17.80;;;;;;;;;;5054390;28;20032;-62
2023/02/13 09:11:33;;;;;;;29.75;19.23;;;;;;;;;;5054068;28;20059;-60
2023/02/13 09:13:59;;;;;;;26.17;18.77;;;;;;;;;;5035217;28;20033;-61
2023/02/13 09:16:25;;;;;;;24.95;17.77;;;;;;;;;;5036046;28;20063;-59
2023/02/13 09:18:51;;;;;;;25.55;17.80;;;;;;;;;;5053556;28;20053;-60
2023/02/13 09:21:18;;;;;;;26.63;18.05;;;;;;;;;;5035768;28;20021;-61
2023/02/13 09:23:44;;;;;;;26.90;18.60;;;;;;;;;;5053311;28;20440;-63
2023/02/13 09:26:11;;;;;;;25.63;18.30;;;;;;;;;;5035810;28;20436;-62
2023/02/13 09:28:38;;;;;;;29.52;19.08;;;;;;;;;;5053708;28;20021;-60
2023/02/13 09:31:11;;;;;;;27.42;19.00;;;;;;;;;;5035901;28;20171;-64
2023/02/13 09:33:38;;;;;;;25.38;17.08;;;;;;;;;;5035075;28;20029;-62
2023/02/13 09:36:05;;;;;;;28.20;18.55;;;;;;;;;;5035931;28;20021;-62
2023/02/13 09:38:31;;;;;;;25.58;18.35;;;;;;;;;;5036101;28;20033;-61
2023/02/13 09:41:00;;;;;;;28.73;18.20;;;;;;;;;;5035747;28;20022;-63
2023/02/13 09:43:35;;;;;;;26.77;17.92;;;;;;;;;;5052773;28;20104;-59
2023/02/13 09:46:04;;;;;;;26.40;17.08;;;;;;;;;;5035809;28;20080;-60
2023/02/13 09:48:32;;;;;;;26.35;17.83;;;;;;;;;;5035910;28;20066;-60
2023/02/13 09:50:58;;;;;;;27.20;18.05;;;;;;;;;;5053547;28;20147;-63
2023/02/13 09:53:25;;;;;;;27.98;18.50;;;;;;;;;;5034084;28;20032;-63
2023/02/13 09:56:05;;;;;;;25.45;16.20;;;;;;;;;;5035571;28;20029;-61
2023/02/13 09:58:51;;;;;;;23.63;16.63;;;;;;;;;;5053368;28;20089;-63
2023/02/13 10:01:24;;;;;;;23.90;16.42;;;;;;;;;;5053543;28;20024;-61
2023/02/13 10:04:10;;;;;;;24.38;17.52;;;;;;;;;;5034722;28;20393;-61
2023/02/13 10:06:48;;;;;;;24.85;17.40;;;;;;;;;;5028497;28;20098;-62
2023/02/13 10:09:27;;;;;;;24.60;16.05;;;;;;;;;;5035585;28;20397;-63
2023/02/13 10:11:53;;;;;;;;;;;;;;;;;;5035821;28;20083;-59
2023/02/13 10:14:19;;;;;;;27.95;17.58;;;;;;;;;;5052194;28;19911;-60
2023/02/13 10:16:48;;;;;;;26.42;16.60;;;;;;;;;;5052746;28;20017;-61
2023/02/13 10:19:30;;;;;;;31.00;17.48;;;;;;;;;;5052807;28;20029;-62
2023/02/13 10:22:01;;;;;;;29.20;17.65;;;;;;;;;;5034980;28;20116;-62
2023/02/13 10:24:54;;;;;;;26.33;17.35;;;;;;;;;;5034160;28;20476;-63
2023/02/13 10:27:24;;;;;;;28.75;16.98;;;;;;;;;;5033380;28;20067;-64
2023/02/13 10:30:11;;;;;;;26.67;17.58;;;;;;;;;;5052559;28;20021;-61
2023/02/13 10:33:41;;;;;;;31.67;18.40;;;;;;;;;;5034647;28;20122;-63
2023/02/13 10:35:45;;;;;;;31.88;18.08;;;;;;;;;;5038231;28;20044;-62
2023/02/13 10:38:11;;;;;;;;;;;;;;;;;;5052887;28;20140;-62
2023/02/13 10:40:40;;;;;;;27.35;16.98;;;;;;;;;;5052388;28;20466;-63
2023/02/13 10:43:07;;;;;;;28.48;17.67;;;;;;;;;;5033664;28;20028;-62
2023/02/13 10:45:42;;;;;;;29.92;17.92;;;;;;;;;;5052483;28;20098;-60
2023/02/13 10:48:11;;;;;;;27.25;17.20;;;;;;;;;;5034391;28;20025;-62
2023/02/13 10:50:56;;;;;;;26.48;16.85;;;;;;;;;;5034216;28;20036;-62
2023/02/13 10:53:28;;;;;;;27.17;17.90;;;;;;;;;;5033607;28;20025;-65
2023/02/13 10:56:16;;;;;;;23.42;16.52;;;;;;;;;;5047606;28;20104;-64
2023/02/13 10:58:51;;;;;;;43.35;19.25;;;;;;;;;;5025548;28;20057;-61
2023/02/13 11:01:23;;;;;;;27.45;17.05;;;;;;;;;;5036556;28;20021;-61
2023/02/13 11:04:00;;;;;;;26.00;17.33;;;;;;;;;;5041392;28;20447;-62
2023/02/13 11:06:26;;;;;;;26.35;17.73;;;;;;;;;;5028987;28;20021;-62
2023/02/13 11:08:52;;;;;;;25.33;17.02;;;;;;;;;;5051715;28;20025;-60
2023/02/13 11:11:31;;;;;;;25.33;18.08;;;;;;;;;;5051677;28;20455;-64
2023/02/13 11:14:09;;;;;;;24.60;16.88;;;;;;;;;;5051069;28;20021;-61
2023/02/13 11:16:40;;;;;;;30.13;17.35;;;;;;;;;;5033186;28;20397;-62
2023/02/13 11:19:09;;;;;;;28.33;17.13;;;;;;;;;;5033635;28;20061;-60
2023/02/13 11:21:36;;;;;;;;;;;;;;;;;;5051605;28;20052;-63
2023/02/13 11:24:02;;;;;;;31.85;17.45;;;;;;;;;;5050723;28;20376;-61
2023/02/13 11:26:32;;;;;;;32.30;17.50;;;;;;;;;;5033432;28;20037;-63
2023/02/13 11:29:15;;;;;;;28.85;17.02;;;;;;;;;;5051336;28;20029;-62
2023/02/13 11:31:41;;;;;;;31.58;18.35;;;;;;;;;;5050845;28;20044;-63
2023/02/13 11:34:22;;;;;;;24.42;17.38;;;;;;;;;;5032383;28;20040;-61
2023/02/13 11:36:51;;;;;;;28.33;17.48;;;;;;;;;;5032998;28;20021;-63
2023/02/13 11:39:18;;;;;;;22.02;17.23;;;;;;;;;;5033335;28;20067;-61
2023/02/13 11:41:45;;;;;;;23.00;17.50;;;;;;;;;;5033318;28;20035;-62
2023/02/13 11:44:25;;;;;;;23.35;17.45;;;;;;;;;;5047695;28;20032;-62
2023/02/13 11:46:53;;;;;;;21.98;17.48;;;;;;;;;;5039355;28;20028;-62
2023/02/13 11:49:20;;;;;;;27.58;16.88;;;;;;;;;;5032859;28;20036;-60
2023/02/13 11:51:48;;;;;;;24.95;18.13;;;;;;;;;;5030034;28;20017;-61
2023/02/13 11:54:21;;;;;;;22.50;17.20;;;;;;;;;;5030813;28;20086;-61
2023/02/13 11:56:50;;;;;;;31.95;19.48;;;;;;;;;;5025954;28;20029;-64
2023/02/13 11:59:16;;;;;;;25.48;16.58;;;;;;;;;;5013549;28;20029;-60
2023/02/13 12:01:48;;;;;;;24.63;17.52;;;;;;;;;;5045603;28;20025;-62
2023/02/13 12:04:17;;;;;;;19.80;16.65;;;;;;;;;;5032443;28;20024;-62
2023/02/13 12:07:03;;;;;;;21.70;16.38;;;;;;;;;;5051310;28;20017;-62
2023/02/13 12:09:30;;;;;;;20.67;16.80;;;;;;;;;;5033215;28;20024;-63
2023/02/13 12:12:02;;;;;;;21.73;17.88;;;;;;;;;;5032825;28;20024;-62
2023/02/13 12:14:34;;;;;;;36.88;19.80;;;;;;;;;;5049987;28;20485;-64
2023/02/13 12:17:06;;;;;;;21.38;17.42;;;;;;;;;;5049947;28;20022;-62
2023/02/13 12:19:34;;;;;;;22.15;17.88;;;;;;;;;;5050329;28;20025;-61
2023/02/13 12:22:20;;;;;;;20.40;17.20;;;;;;;;;;5050777;28;20018;-63
2023/02/13 12:25:05;;;;;;;24.92;18.95;;;;;;;;;;5050394;28;20013;-60
2023/02/13 12:27:34;;;;;;;26.10;18.85;;;;;;;;;;5048161;23;20065;-56
2023/02/13 12:30:16;;;;;;;21.95;18.85;;;;;;;;;;5029615;28;20021;-59
2023/02/13 12:33:02;;;;;;;20.88;18.13;;;;;;;;;;5030078;28;20021;-60
2023/02/13 12:35:46;;;;;;;23.63;19.27;;;;;;;;;;5028572;28;20378;-60
2023/02/13 12:38:15;;;;;;;20.35;17.45;;;;;;;;;;5010068;28;20033;-61
2023/02/13 12:41:00;;;;;;;19.30;17.15;;;;;;;;;;5010349;28;20463;-62
2023/02/13 12:43:45;;;;;;;24.75;19.08;;;;;;;;;;5011431;28;20520;-56
2023/02/13 12:46:13;;;;;;;22.40;17.67;;;;;;;;;;5029177;28;20049;-59
2023/02/13 12:48:58;;;;;;;20.15;17.95;;;;;;;;;;5029723;28;20053;-56
2023/02/13 12:51:30;;;;;;;22.58;18.08;;;;;;;;;;5029456;28;20032;-60
2023/02/13 12:53:59;;;;;;;22.42;17.45;;;;;;;;;;5029133;28;20065;-62
2023/02/13 12:56:31;;;;;;;24.30;17.45;;;;;;;;;;5012027;28;20438;-61
2023/02/13 12:59:07;;;;;;;19.80;17.50;;;;;;;;;;5029347;28;20105;-59
2023/02/13 13:01:43;;;;;;;23.20;16.77;;;;;;;;;;5024602;28;20026;-63
2023/02/13 13:04:27;;;;;;;26.67;17.40;;;;;;;;;;5028873;28;20072;-61
2023/02/13 13:07:12;;;;;;;21.65;17.77;;;;;;;;;;5011522;28;20026;-62
2023/02/13 13:09:38;;;;;;;20.65;16.88;;;;;;;;;;5029540;28;20029;-59
2023/02/13 13:12:24;;;;;;;21.92;16.92;;;;;;;;;;5029689;28;20108;-62
2023/02/13 13:15:10;;;;;;;20.38;16.83;;;;;;;;;;5028506;28;20098;-61
2023/02/13 13:17:36;;;;;;;20.65;17.33;;;;;;;;;;5028800;28;20026;-62
2023/02/13 13:20:03;;;;;;;19.83;16.70;;;;;;;;;;5027958;28;20018;-59
2023/02/13 13:22:32;;;;;;;20.83;17.38;;;;;;;;;;5022858;28;20041;-61
2023/02/13 13:25:07;;;;;;;96.28;88.30;;;;;;;;;;5028754;28;20464;-61
2023/02/13 13:27:37;;;;;;;20.83;18.20;;;;;;;;;;5026057;28;20107;-60
2023/02/13 13:30:05;;;;;;;24.13;17.48;;;;;;;;;;5033034;28;20080;-58
2023/02/13 13:32:32;;;;;;;19.65;16.45;;;;;;;;;;5015999;28;20025;-61
2023/02/13 13:34:59;;;;;;;18.50;15.73;;;;;;;;;;5032382;28;20025;-61
2023/02/13 13:37:37;;;;;;;22.45;16.08;;;;;;;;;;5015710;28;20021;-60
2023/02/13 13:40:14;;;;;;;21.90;16.55;;;;;;;;;;5033565;28;20376;-59
2023/02/13 13:42:43;;;;;;;19.67;16.38;;;;;;;;;;5015807;28;20461;-58
2023/02/13 13:45:27;;;;;;;19.63;15.35;;;;;;;;;;5032925;28;20033;-60
2023/02/13 13:47:59;;;;;;;21.25;15.63;;;;;;;;;;5032509;28;20051;-61
2023/02/13 13:50:29;;;;;;;34.17;25.42;;;;;;;;;;5033204;28;20159;-62
2023/02/13 13:53:04;;;;;;;27.23;21.10;;;;;;;;;;5032708;28;20022;-61
2023/02/13 13:55:46;;;;;;;35.05;31.30;;;;;;;;;;5031690;28;20111;-59
2023/02/13 13:58:21;;;;;;;19.42;15.77;;;;;;;;;;4983786;28;20067;-62
2023/02/13 14:01:07;;;;;;;20.10;16.17;;;;;;;;;;5009071;28;20731;-63
2023/02/13 14:03:36;;;;;;;21.17;16.40;;;;;;;;;;5020039;28;20148;-60
2023/02/13 14:06:04;;;;;;;23.48;16.80;;;;;;;;;;5028720;28;20075;-61
2023/02/13 14:08:39;;;;;;;20.65;16.60;;;;;;;;;;5023917;28;20033;-62
2023/02/13 14:11:06;;;;;;;21.58;15.85;;;;;;;;;;5009202;28;20079;-63
2023/02/13 14:13:39;;;;;;;19.98;16.25;;;;;;;;;;5012505;28;20028;-62
2023/02/13 14:16:09;;;;;;;19.42;16.55;;;;;;;;;;5030659;28;20367;-58
2023/02/13 14:18:37;;;;;;;20.90;16.67;;;;;;;;;;5013185;28;20544;-58
2023/02/13 14:21:03;;;;;;;18.67;15.68;;;;;;;;;;5010082;28;20439;-59
2023/02/13 14:23:32;;;;;;;21.73;16.73;;;;;;;;;;5009971;28;20422;-62
2023/02/13 14:26:10;;;;;;;20.15;15.75;;;;;;;;;;5011626;28;20025;-59
2023/02/13 14:28:37;;;;;;;19.90;15.75;;;;;;;;;;4993135;28;20026;-61
2023/02/13 14:31:06;;;;;;;21.27;16.85;;;;;;;;;;4993732;28;20025;-62
2023/02/13 14:33:33;;;;;;;26.80;17.00;;;;;;;;;;5011199;28;20067;-59
2023/02/13 14:36:00;;;;;;;19.42;15.65;;;;;;;;;;5011709;28;20021;-60
2023/02/13 14:38:27;;;;;;;21.77;16.52;;;;;;;;;;5011529;28;20080;-62
2023/02/13 14:40:53;;;;;;;18.65;15.80;;;;;;;;;;5007550;28;20148;-58
2023/02/13 14:43:19;;;;;;;21.35;16.63;;;;;;;;;;4996691;28;20521;-60
2023/02/13 14:45:51;;;;;;;20.83;16.80;;;;;;;;;;5013903;28;20063;-61
2023/02/13 14:48:17;;;;;;;20.50;16.13;;;;;;;;;;5031535;28;20674;-60
2023/02/13 14:50:49;;;;;;;19.10;15.90;;;;;;;;;;5013736;28;20461;-61
2023/02/13 14:53:19;;;;;;;18.98;15.65;;;;;;;;;;5030916;28;20246;-63
2023/02/13 14:55:47;;;;;;;18.52;15.25;;;;;;;;;;5031926;28;20072;-61
2023/02/13 14:58:33;;;;;;;21.25;15.30;;;;;;;;;;5013967;28;20032;-60
2023/02/13 15:01:06;;;;;;;20.23;15.15;;;;;;;;;;5015138;28;20029;-60
2023/02/13 15:03:59;;;;;;;18.67;15.23;;;;;;;;;;5010904;28;20018;-57
2023/02/13 15:06:25;;;;;;;20.02;15.10;;;;;;;;;;5007677;28;20034;-60
2023/02/13 15:08:52;;;;;;;19.65;15.35;;;;;;;;;;5011583;28;20079;-60
2023/02/13 15:11:35;;;;;;;18.52;15.43;;;;;;;;;;5010966;28;20136;-59
2023/02/13 15:14:19;;;;;;;19.25;14.43;;;;;;;;;;5009876;28;20093;-61
2023/02/13 15:16:48;;;;;;;19.30;14.63;;;;;;;;;;5010769;28;20046;-60
2023/02/13 15:19:13;;;;;;;;;;;;;;;;;;5011260;28;20038;-58
2023/02/13 15:21:46;;;;;;;19.45;14.65;;;;;;;;;;5005458;28;20455;-61
2023/02/13 15:24:14;;;;;;;19.27;15.07;;;;;;;;;;4995968;28;20021;-58